sensor_id;sensor_type;location;lat;lon;timestamp;pressure;altitude;pressure_sealevel;temperature;humidity
76847;BME280;65813;49.546;8.644;2022-12-08T05:19:16;100095.75;;;1.56;87.94
76847;BME280;65813;49.546;8.644;2022-12-08T05:23:16;100093.97;;;1.56;88.35
76847;BME280;65813;49.546;8.644;2022-12-08T05:27:16;100097.47;;;1.57;88.16
76847;BME280;65813;49.546;8.644;2022-12-08T05:31:17;100096.28;;;1.64;87.45
76847;BME280;65813;49.546;8.644;2022-12-08T05:35:17;100081.44;;;1.63;87.21
76847;BME280;65813;49.546;8.644;2022-12-08T05:39:18;100078.19;;;1.58;87.79
76847;BME280;65813;49.546;8.644;2022-12-08T05:43:18;100075.47;;;1.59;87.61
76847;BME280;65813;49.546;8.644;2022-12-08T05:47:18;100076.34;;;1.60;87.50
76847;BME280;65813;49.546;8.644;2022-12-08T05:51:22;100066.81;;;1.57;87.32
76847;BME280;65813;49.546;8.644;2022-12-08T05:55:22;100061.56;;;1.57;87.65
76847;BME280;65813;49.546;8.644;2022-12-08T05:59:24;100073.72;;;1.60;86.89
76847;BME280;65813;49.546;8.644;2022-12-08T06:03:24;100065.69;;;1.63;87.16
76847;BME280;65813;49.546;8.644;2022-12-08T06:07:25;100082.44;;;1.60;86.71
76847;BME280;65813;49.546;8.644;2022-12-08T06:11:30;100091.22;;;1.59;87.36
76847;BME280;65813;49.546;8.644;2022-12-08T06:15:33;100075.84;;;1.72;86.75
76847;BME280;65813;49.546;8.644;2022-12-08T06:19:34;100079.97;;;1.77;86.03
76847;BME280;65813;49.546;8.644;2022-12-08T06:23:34;100092.03;;;1.81;86.06
76847;BME280;65813;49.546;8.644;2022-12-08T06:27:35;100078.00;;;1.82;86.03
76847;BME280;65813;49.546;8.644;2022-12-08T06:31:35;100090.88;;;1.88;85.59
76847;BME280;65813;49.546;8.644;2022-12-08T06:35:36;100086.97;;;1.97;85.41
76847;BME280;65813;49.546;8.644;2022-12-08T06:39:36;100084.44;;;1.95;85.14
76847;BME280;65813;49.546;8.644;2022-12-08T06:43:36;100084.28;;;1.98;85.38
76847;BME280;65813;49.546;8.644;2022-12-08T06:47:37;100090.59;;;1.94;84.98
76847;BME280;65813;49.546;8.644;2022-12-08T06:51:37;100072.75;;;1.82;84.85
76847;BME280;65813;49.546;8.644;2022-12-08T06:55:45;100084.69;;;1.89;85.11
76847;BME280;65813;49.546;8.644;2022-12-08T06:59:46;100089.81;;;1.92;84.83
76847;BME280;65813;49.546;8.644;2022-12-08T07:03:46;100081.66;;;1.98;85.30
76847;BME280;65813;49.546;8.644;2022-12-08T07:07:46;100084.63;;;1.91;84.98
76847;BME280;65813;49.546;8.644;2022-12-08T07:11:47;100081.09;;;1.92;84.92
76847;BME280;65813;49.546;8.644;2022-12-08T07:15:47;100084.69;;;1.89;84.83
76847;BME280;65813;49.546;8.644;2022-12-08T07:19:48;100093.34;;;1.91;84.60
76847;BME280;65813;49.546;8.644;2022-12-08T07:23:48;100098.66;;;1.90;84.93
76847;BME280;65813;49.546;8.644;2022-12-08T07:27:49;100090.00;;;1.88;85.33
76847;BME280;65813;49.546;8.644;2022-12-08T07:31:51;100086.25;;;1.93;85.49
76847;BME280;65813;49.546;8.644;2022-12-08T07:35:58;100081.94;;;1.92;85.50
76847;BME280;65813;49.546;8.644;2022-12-08T07:39:59;100083.72;;;1.92;85.27
76847;BME280;65813;49.546;8.644;2022-12-08T07:43:59;100084.34;;;1.97;85.21
76847;BME280;65813;49.546;8.644;2022-12-08T07:48:00;100081.47;;;2.03;85.17
76847;BME280;65813;49.546;8.644;2022-12-08T07:52:00;100083.25;;;2.02;84.93
76847;BME280;65813;49.546;8.644;2022-12-08T07:56:04;100084.16;;;2.01;85.23
76847;BME280;65813;49.546;8.644;2022-12-08T08:00:06;100078.03;;;2.01;85.48
76847;BME280;65813;49.546;8.644;2022-12-08T08:04:06;100082.91;;;2.10;84.67
76847;BME280;65813;49.546;8.644;2022-12-08T08:08:06;100079.28;;;2.13;84.51
76847;BME280;65813;49.546;8.644;2022-12-08T08:12:08;100076.09;;;2.25;84.49
76847;BME280;65813;49.546;8.644;2022-12-08T08:16:09;100081.06;;;2.12;84.47
76847;BME280;65813;49.546;8.644;2022-12-08T08:20:10;100079.44;;;2.10;84.55
76847;BME280;65813;49.546;8.644;2022-12-08T08:24:10;100079.53;;;2.27;84.47
76847;BME280;65813;49.546;8.644;2022-12-08T08:28:11;100086.03;;;2.18;84.75
76847;BME280;65813;49.546;8.644;2022-12-08T08:32:11;100076.38;;;2.19;84.66
76847;BME280;65813;49.546;8.644;2022-12-08T08:36:12;100092.16;;;2.19;84.82
76847;BME280;65813;49.546;8.644;2022-12-08T08:40:12;100088.53;;;2.21;84.74
76847;BME280;65813;49.546;8.644;2022-12-08T08:44:13;100079.16;;;2.16;84.93
76847;BME280;65813;49.546;8.644;2022-12-08T08:48:14;100082.63;;;2.16;84.89
76847;BME280;65813;49.546;8.644;2022-12-08T08:52:14;100083.03;;;2.27;84.33
76847;BME280;65813;49.546;8.644;2022-12-08T08:56:16;100079.41;;;2.30;84.27
76847;BME280;65813;49.546;8.644;2022-12-08T09:00:18;100067.25;;;2.27;84.34
76847;BME280;65813;49.546;8.644;2022-12-08T09:04:19;100073.88;;;2.36;83.87
76847;BME280;65813;49.546;8.644;2022-12-08T09:08:20;100073.28;;;2.29;84.26
76847;BME280;65813;49.546;8.644;2022-12-08T09:12:21;100078.16;;;2.18;84.36
76847;BME280;65813;49.546;8.644;2022-12-08T09:16:22;100077.69;;;2.29;84.36
76847;BME280;65813;49.546;8.644;2022-12-08T09:20:22;100081.69;;;2.37;84.12
76847;BME280;65813;49.546;8.644;2022-12-08T09:24:22;100072.09;;;2.36;83.90
76847;BME280;65813;49.546;8.644;2022-12-08T09:28:23;100078.78;;;2.43;83.95
76847;BME280;65813;49.546;8.644;2022-12-08T09:32:23;100074.28;;;2.45;83.99
76847;BME280;65813;49.546;8.644;2022-12-08T09:36:24;100066.94;;;2.53;83.86
76847;BME280;65813;49.546;8.644;2022-12-08T09:40:25;100064.50;;;2.49;83.84
76847;BME280;65813;49.546;8.644;2022-12-08T09:48:59;100058.97;;;2.55;84.04
76847;BME280;65813;49.546;8.644;2022-12-08T09:57:30;100045.25;;;2.67;83.03
76847;BME280;65813;49.546;8.644;2022-12-08T10:01:33;100044.09;;;2.73;82.76
76847;BME280;65813;49.546;8.644;2022-12-08T10:05:36;100030.44;;;2.83;82.14
76847;BME280;65813;49.546;8.644;2022-12-08T10:09:45;100032.09;;;2.86;81.54
76847;BME280;65813;49.546;8.644;2022-12-08T10:18:01;100018.88;;;2.87;81.85
76847;BME280;65813;49.546;8.644;2022-12-08T10:22:14;100022.06;;;2.94;81.41
76847;BME280;65813;49.546;8.644;2022-12-08T10:26:18;100010.66;;;2.93;81.28
76847;BME280;65813;49.546;8.644;2022-12-08T10:30:20;100017.03;;;2.89;81.02
76847;BME280;65813;49.546;8.644;2022-12-08T10:34:22;100008.69;;;2.98;81.68
76847;BME280;65813;49.546;8.644;2022-12-08T10:38:34;99998.34;;;3.13;81.33
76847;BME280;65813;49.546;8.644;2022-12-08T10:42:39;100004.16;;;3.19;80.75
76847;BME280;65813;49.546;8.644;2022-12-08T10:46:40;99991.84;;;3.02;81.14
76847;BME280;65813;49.546;8.644;2022-12-08T10:50:56;99991.38;;;3.12;81.67
76847;BME280;65813;49.546;8.644;2022-12-08T10:54:59;99978.84;;;3.17;81.32
76847;BME280;65813;49.546;8.644;2022-12-08T10:59:12;99974.66;;;3.13;81.63
76847;BME280;65813;49.546;8.644;2022-12-08T11:03:22;99982.09;;;3.22;82.01
76847;BME280;65813;49.546;8.644;2022-12-08T11:07:24;99975.44;;;3.32;81.35
76847;BME280;65813;49.546;8.644;2022-12-08T11:11:57;99971.66;;;3.37;80.91
76847;BME280;65813;49.546;8.644;2022-12-08T11:15:58;99970.47;;;3.43;81.08
76847;BME280;65813;49.546;8.644;2022-12-08T11:28:15;99958.66;;;3.51;80.84
76847;BME280;65813;49.546;8.644;2022-12-08T11:32:18;99945.56;;;3.50;80.57
76847;BME280;65813;49.546;8.644;2022-12-08T11:36:20;99945.91;;;3.60;80.63
76847;BME280;65813;49.546;8.644;2022-12-08T11:40:40;99943.38;;;3.58;80.42
76847;BME280;65813;49.546;8.644;2022-12-08T11:44:48;99942.22;;;3.46;80.51
76847;BME280;65813;49.546;8.644;2022-12-08T11:48:55;99939.19;;;3.54;81.11
76847;BME280;65813;49.546;8.644;2022-12-08T11:53:00;99926.19;;;3.51;80.55
76847;BME280;65813;49.546;8.644;2022-12-08T11:57:03;99926.34;;;3.65;79.92
76847;BME280;65813;49.546;8.644;2022-12-08T12:01:04;99918.28;;;3.68;80.00
76847;BME280;65813;49.546;8.644;2022-12-08T12:05:28;99919.34;;;3.64;79.80
76847;BME280;65813;49.546;8.644;2022-12-08T12:09:42;99904.81;;;3.57;80.00
76847;BME280;65813;49.546;8.644;2022-12-08T12:22:32;99892.34;;;3.61;80.26
76847;BME280;65813;49.546;8.644;2022-12-08T12:26:36;99897.38;;;3.65;80.05
76847;BME280;65813;49.546;8.644;2022-12-08T12:31:03;99889.03;;;3.73;80.07
76847;BME280;65813;49.546;8.644;2022-12-08T12:35:34;99886.50;;;3.71;79.28
76847;BME280;65813;49.546;8.644;2022-12-08T12:39:47;99879.97;;;3.78;79.38
76847;BME280;65813;49.546;8.644;2022-12-08T12:48:27;99888.56;;;3.82;78.72
76847;BME280;65813;49.546;8.644;2022-12-08T13:05:26;99885.81;;;3.83;78.24
76847;BME280;65813;49.546;8.644;2022-12-08T13:09:31;99873.28;;;3.88;78.28
76847;BME280;65813;49.546;8.644;2022-12-08T13:13:32;99877.00;;;3.84;77.80
76847;BME280;65813;49.546;8.644;2022-12-08T13:17:35;99866.28;;;3.87;78.04
76847;BME280;65813;49.546;8.644;2022-12-08T13:21:37;99873.84;;;3.93;77.83
76847;BME280;65813;49.546;8.644;2022-12-08T13:29:39;99855.28;;;3.96;76.85
76847;BME280;65813;49.546;8.644;2022-12-08T13:33:39;99854.59;;;4.08;77.59
76847;BME280;65813;49.546;8.644;2022-12-08T13:37:59;99854.94;;;4.02;77.75
76847;BME280;65813;49.546;8.644;2022-12-08T13:42:06;99851.69;;;3.97;76.96
76847;BME280;65813;49.546;8.644;2022-12-08T13:46:16;99860.53;;;3.96;77.76
76847;BME280;65813;49.546;8.644;2022-12-08T13:50:43;99866.53;;;3.83;77.14
76847;BME280;65813;49.546;8.644;2022-12-08T13:54:46;99856.09;;;3.81;77.41
76847;BME280;65813;49.546;8.644;2022-12-08T13:58:46;99866.44;;;3.69;77.65
76847;BME280;65813;49.546;8.644;2022-12-08T14:02:48;99868.75;;;3.75;77.59
76847;BME280;65813;49.546;8.644;2022-12-08T14:06:57;99867.16;;;3.72;77.80
76847;BME280;65813;49.546;8.644;2022-12-08T14:11:03;99862.69;;;3.73;77.09
76847;BME280;65813;49.546;8.644;2022-12-08T14:15:05;99862.50;;;3.60;77.75
76847;BME280;65813;49.546;8.644;2022-12-08T14:19:16;99869.50;;;3.61;77.82
76847;BME280;65813;49.546;8.644;2022-12-08T14:23:16;99864.97;;;3.63;78.23
76847;BME280;65813;49.546;8.644;2022-12-08T14:27:19;99867.78;;;3.60;77.90
76847;BME280;65813;49.546;8.644;2022-12-08T14:31:21;99870.19;;;3.65;77.03
76847;BME280;65813;49.546;8.644;2022-12-08T14:39:24;99871.03;;;3.65;77.87
76847;BME280;65813;49.546;8.644;2022-12-08T14:43:26;99859.66;;;3.65;78.06
76847;BME280;65813;49.546;8.644;2022-12-08T14:47:29;99865.38;;;3.55;77.45
76847;BME280;65813;49.546;8.644;2022-12-08T14:51:31;99867.09;;;3.56;77.65
76847;BME280;65813;49.546;8.644;2022-12-08T14:55:34;99870.13;;;3.49;77.78
76847;BME280;65813;49.546;8.644;2022-12-08T14:59:37;99865.19;;;3.43;77.79
76847;BME280;65813;49.546;8.644;2022-12-08T15:03:38;99860.94;;;3.40;78.19
76847;BME280;65813;49.546;8.644;2022-12-08T15:07:52;99874.97;;;3.41;78.21
76847;BME280;65813;49.546;8.644;2022-12-08T15:12:04;99871.16;;;3.46;78.33
76847;BME280;65813;49.546;8.644;2022-12-08T15:16:24;99867.78;;;3.60;77.68
76847;BME280;65813;49.546;8.644;2022-12-08T15:20:41;99864.69;;;3.52;77.40
76847;BME280;65813;49.546;8.644;2022-12-08T15:24:43;99869.88;;;3.38;77.76
76847;BME280;65813;49.546;8.644;2022-12-08T15:28:43;99868.75;;;3.42;78.70
76847;BME280;65813;49.546;8.644;2022-12-08T15:32:43;99867.81;;;3.43;78.58
76847;BME280;65813;49.546;8.644;2022-12-08T15:36:45;99866.63;;;3.48;78.45
76847;BME280;65813;49.546;8.644;2022-12-08T15:40:45;99857.06;;;3.47;77.91
76847;BME280;65813;49.546;8.644;2022-12-08T15:44:46;99857.22;;;3.44;78.98
76847;BME280;65813;49.546;8.644;2022-12-08T15:48:46;99853.78;;;3.27;79.07
76847;BME280;65813;49.546;8.644;2022-12-08T15:52:48;99868.38;;;3.32;79.59
76847;BME280;65813;49.546;8.644;2022-12-08T15:56:51;99857.69;;;3.35;79.05
76847;BME280;65813;49.546;8.644;2022-12-08T16:00:52;99857.16;;;3.29;79.16
76847;BME280;65813;49.546;8.644;2022-12-08T16:04:53;99855.22;;;3.32;79.20
76847;BME280;65813;49.546;8.644;2022-12-08T16:08:54;99868.78;;;3.25;78.98
76847;BME280;65813;49.546;8.644;2022-12-08T16:12:54;99856.16;;;3.14;78.97
76847;BME280;65813;49.546;8.644;2022-12-08T16:17:14;99858.34;;;3.23;78.71
76847;BME280;65813;49.546;8.644;2022-12-08T16:21:15;99867.09;;;3.24;78.26
76847;BME280;65813;49.546;8.644;2022-12-08T16:25:16;99851.53;;;3.19;78.12
76847;BME280;65813;49.546;8.644;2022-12-08T16:29:19;99849.09;;;3.32;78.07
76847;BME280;65813;49.546;8.644;2022-12-08T16:33:19;99842.22;;;3.29;77.27
76847;BME280;65813;49.546;8.644;2022-12-08T16:37:24;99855.44;;;3.28;77.34
76847;BME280;65813;49.546;8.644;2022-12-08T16:41:25;99838.97;;;3.24;77.56
76847;BME280;65813;49.546;8.644;2022-12-08T16:45:43;99832.19;;;3.20;77.40
76847;BME280;65813;49.546;8.644;2022-12-08T16:49:44;99840.78;;;3.24;77.52
76847;BME280;65813;49.546;8.644;2022-12-08T16:53:44;99835.06;;;3.16;77.57
76847;BME280;65813;49.546;8.644;2022-12-08T16:57:45;99831.00;;;3.26;77.80
76847;BME280;65813;49.546;8.644;2022-12-08T17:01:46;99831.00;;;3.26;76.79
76847;BME280;65813;49.546;8.644;2022-12-08T17:05:47;99830.00;;;3.28;76.63
76847;BME280;65813;49.546;8.644;2022-12-08T17:09:47;99833.97;;;3.20;76.18
76847;BME280;65813;49.546;8.644;2022-12-08T17:13:47;99833.34;;;3.15;76.92
76847;BME280;65813;49.546;8.644;2022-12-08T17:17:48;99834.28;;;3.14;77.44
76847;BME280;65813;49.546;8.644;2022-12-08T17:21:48;99836.84;;;3.15;77.95
76847;BME280;65813;49.546;8.644;2022-12-08T17:25:59;99833.50;;;3.12;77.45
76847;BME280;65813;49.546;8.644;2022-12-08T17:29:59;99828.34;;;3.10;77.54
76847;BME280;65813;49.546;8.644;2022-12-08T17:34:01;99830.50;;;3.02;77.92
76847;BME280;65813;49.546;8.644;2022-12-08T17:38:02;99827.72;;;3.05;78.37
76847;BME280;65813;49.546;8.644;2022-12-08T17:42:02;99840.25;;;3.00;78.01
76847;BME280;65813;49.546;8.644;2022-12-08T17:46:03;99828.72;;;3.02;78.06
76847;BME280;65813;49.546;8.644;2022-12-08T17:50:04;99828.25;;;2.94;78.05
76847;BME280;65813;49.546;8.644;2022-12-08T17:54:05;99821.44;;;3.08;77.57
76847;BME280;65813;49.546;8.644;2022-12-08T17:58:07;99824.72;;;2.95;78.10
76847;BME280;65813;49.546;8.644;2022-12-08T18:02:10;99809.84;;;2.94;78.35
76847;BME280;65813;49.546;8.644;2022-12-08T18:06:11;99819.88;;;3.03;78.24
76847;BME280;65813;49.546;8.644;2022-12-08T18:10:11;99828.25;;;2.94;78.62
76847;BME280;65813;49.546;8.644;2022-12-08T18:14:12;99824.88;;;2.92;78.87
76847;BME280;65813;49.546;8.644;2022-12-08T18:18:13;99823.16;;;3.09;78.27
76847;BME280;65813;49.546;8.644;2022-12-08T18:22:13;99826.44;;;2.96;78.69
76847;BME280;65813;49.546;8.644;2022-12-08T18:26:15;99817.69;;;2.96;78.27
76847;BME280;65813;49.546;8.644;2022-12-08T18:30:16;99820.91;;;3.01;78.46
76847;BME280;65813;49.546;8.644;2022-12-08T18:34:17;99830.19;;;2.91;78.52
76847;BME280;65813;49.546;8.644;2022-12-08T18:38:18;99828.25;;;2.94;78.90
76847;BME280;65813;49.546;8.644;2022-12-08T18:42:18;99822.00;;;2.97;77.82
76847;BME280;65813;49.546;8.644;2022-12-08T18:46:22;99824.94;;;2.91;78.55
76847;BME280;65813;49.546;8.644;2022-12-08T18:50:23;99822.16;;;2.94;78.55
76847;BME280;65813;49.546;8.644;2022-12-08T18:54:23;99829.88;;;2.97;78.32
76847;BME280;65813;49.546;8.644;2022-12-08T18:58:23;99817.06;;;2.91;78.44
76847;BME280;65813;49.546;8.644;2022-12-08T19:02:24;99814.63;;;3.03;78.47
76847;BME280;65813;49.546;8.644;2022-12-08T19:06:24;99813.72;;;2.87;78.37
76847;BME280;65813;49.546;8.644;2022-12-08T19:10:24;99826.88;;;2.87;78.67
76847;BME280;65813;49.546;8.644;2022-12-08T19:14:26;99834.22;;;2.98;78.54
76847;BME280;65813;49.546;8.644;2022-12-08T19:18:26;99833.47;;;2.96;78.44
76847;BME280;65813;49.546;8.644;2022-12-08T19:22:27;99817.69;;;2.96;77.97
76847;BME280;65813;49.546;8.644;2022-12-08T19:26:27;99827.41;;;2.94;78.71
76847;BME280;65813;49.546;8.644;2022-12-08T19:30:28;99832.28;;;3.01;78.29
76847;BME280;65813;49.546;8.644;2022-12-08T19:34:28;99826.66;;;2.92;78.27
76847;BME280;65813;49.546;8.644;2022-12-08T19:38:28;99822.94;;;2.79;78.39
76847;BME280;65813;49.546;8.644;2022-12-08T19:42:29;99827.72;;;2.88;78.58
76847;BME280;65813;49.546;8.644;2022-12-08T19:46:48;99822.16;;;2.94;77.90
76847;BME280;65813;49.546;8.644;2022-12-08T19:50:48;99817.16;;;2.89;77.82
76847;BME280;65813;49.546;8.644;2022-12-08T19:54:48;99820.53;;;2.91;77.92
76847;BME280;65813;49.546;8.644;2022-12-08T19:58:49;99808.63;;;2.84;78.18
76847;BME280;65813;49.546;8.644;2022-12-08T20:02:49;99809.25;;;2.89;77.80
76847;BME280;65813;49.546;8.644;2022-12-08T20:06:51;99802.19;;;2.90;77.42
76847;BME280;65813;49.546;8.644;2022-12-08T20:10:52;99805.06;;;2.85;77.54
76847;BME280;65813;49.546;8.644;2022-12-08T20:14:55;99810.78;;;2.93;76.85
76847;BME280;65813;49.546;8.644;2022-12-08T20:18:55;99799.34;;;2.94;76.96
76847;BME280;65813;49.546;8.644;2022-12-08T20:22:55;99803.69;;;2.95;77.07
76847;BME280;65813;49.546;8.644;2022-12-08T20:26:56;99807.22;;;2.94;77.35
76847;BME280;65813;49.546;8.644;2022-12-08T20:30:56;99796.69;;;2.94;76.92
76847;BME280;65813;49.546;8.644;2022-12-08T20:34:56;99800.41;;;2.90;76.90
76847;BME280;65813;49.546;8.644;2022-12-08T20:38:57;99794.69;;;2.99;76.99
76847;BME280;65813;49.546;8.644;2022-12-08T20:42:58;99794.75;;;2.98;76.26
76847;BME280;65813;49.546;8.644;2022-12-08T20:46:58;99789.47;;;2.82;76.74
76847;BME280;65813;49.546;8.644;2022-12-08T20:50:59;99795.69;;;2.80;76.94
76847;BME280;65813;49.546;8.644;2022-12-08T20:54:59;99793.69;;;2.85;76.94
76847;BME280;65813;49.546;8.644;2022-12-08T20:58:59;99800.75;;;2.84;77.09
76847;BME280;65813;49.546;8.644;2022-12-08T21:03:00;99804.28;;;2.83;76.99
76847;BME280;65813;49.546;8.644;2022-12-08T21:07:00;99805.78;;;2.89;76.50
76847;BME280;65813;49.546;8.644;2022-12-08T21:11:01;99799.97;;;2.82;77.53
76847;BME280;65813;49.546;8.644;2022-12-08T21:15:02;99807.72;;;2.85;77.08
76847;BME280;65813;49.546;8.644;2022-12-08T21:19:03;99801.81;;;2.80;78.08
76847;BME280;65813;49.546;8.644;2022-12-08T21:23:03;99798.44;;;2.78;77.34
76847;BME280;65813;49.546;8.644;2022-12-08T21:27:03;99798.34;;;2.80;77.12
76847;BME280;65813;49.546;8.644;2022-12-08T21:31:08;99800.97;;;2.80;77.60
76847;BME280;65813;49.546;8.644;2022-12-08T21:35:09;99795.81;;;2.78;77.86
76847;BME280;65813;49.546;8.644;2022-12-08T21:39:09;99804.28;;;2.83;78.87
76847;BME280;65813;49.546;8.644;2022-12-08T21:43:11;99798.28;;;2.81;77.88
76847;BME280;65813;49.546;8.644;2022-12-08T21:47:12;99800.28;;;2.76;78.13
76847;BME280;65813;49.546;8.644;2022-12-08T21:51:13;99802.91;;;2.76;78.64
76847;BME280;65813;49.546;8.644;2022-12-08T21:55:15;99803.91;;;2.74;78.64
76847;BME280;65813;49.546;8.644;2022-12-08T21:59:16;99810.25;;;2.70;79.06
76847;BME280;65813;49.546;8.644;2022-12-08T22:03:17;99801.81;;;2.63;79.04
76847;BME280;65813;49.546;8.644;2022-12-08T22:07:18;99802.75;;;2.62;79.23
76847;BME280;65813;49.546;8.644;2022-12-08T22:11:19;99801.66;;;2.66;79.37
